sensor_id;sensor_type;location;lat;lon;timestamp;temperature;humidity
584;HTU21D;27024;54.068;12.116;2024-02-23T00:01:01;9.62;118.99
584;HTU21D;27024;54.068;12.116;2024-02-23T00:03:28;9.76;118.99
584;HTU21D;27024;54.068;12.116;2024-02-23T00:05:55;9.83;118.99
584;HTU21D;27024;54.068;12.116;2024-02-23T00:08:22;9.81;118.99
584;HTU21D;27024;54.068;12.116;2024-02-23T00:10:49;9.94;118.99
584;HTU21D;27024;54.068;12.116;2024-02-23T00:13:16;9.78;118.99
584;HTU21D;27024;54.068;12.116;2024-02-23T00:15:43;9.90;118.99
584;HTU21D;27024;54.068;12.116;2024-02-23T00:18:10;9.91;118.99
584;HTU21D;27024;54.068;12.116;2024-02-23T00:20:40;9.98;118.99
584;HTU21D;27024;54.068;12.116;2024-02-23T00:23:07;9.83;118.99
584;HTU21D;27024;54.068;12.116;2024-02-23T00:25:34;9.84;118.99
584;HTU21D;27024;54.068;12.116;2024-02-23T00:28:00;9.89;118.99
584;HTU21D;27024;54.068;12.116;2024-02-23T00:30:27;9.91;118.99
584;HTU21D;27024;54.068;12.116;2024-02-23T00:32:54;9.90;118.99
584;HTU21D;27024;54.068;12.116;2024-02-23T00:35:21;9.93;118.99
584;HTU21D;27024;54.068;12.116;2024-02-23T00:37:48;10.01;118.99
584;HTU21D;27024;54.068;12.116;2024-02-23T00:40:15;9.98;118.99
584;HTU21D;27024;54.068;12.116;2024-02-23T00:42:42;9.90;118.99
584;HTU21D;27024;54.068;12.116;2024-02-23T00:45:09;10.00;118.99
584;HTU21D;27024;54.068;12.116;2024-02-23T00:47:36;9.91;118.99
584;HTU21D;27024;54.068;12.116;2024-02-23T00:50:05;9.88;118.99
584;HTU21D;27024;54.068;12.116;2024-02-23T00:52:32;9.92;118.99
584;HTU21D;27024;54.068;12.116;2024-02-23T00:54:59;9.89;118.99
584;HTU21D;27024;54.068;12.116;2024-02-23T00:57:26;10.01;118.99
584;HTU21D;27024;54.068;12.116;2024-02-23T00:59:57;10.06;118.99
584;HTU21D;27024;54.068;12.116;2024-02-23T01:02:26;9.96;118.99
584;HTU21D;27024;54.068;12.116;2024-02-23T01:04:53;9.91;118.99
584;HTU21D;27024;54.068;12.116;2024-02-23T01:07:25;9.92;118.99
584;HTU21D;27024;54.068;12.116;2024-02-23T01:09:54;9.91;118.99
584;HTU21D;27024;54.068;12.116;2024-02-23T01:12:21;9.81;118.99
584;HTU21D;27024;54.068;12.116;2024-02-23T01:14:48;9.76;118.99
584;HTU21D;27024;54.068;12.116;2024-02-23T01:17:15;9.70;118.99
584;HTU21D;27024;54.068;12.116;2024-02-23T01:19:43;9.66;118.99
584;HTU21D;27024;54.068;12.116;2024-02-23T01:22:10;9.67;118.99
584;HTU21D;27024;54.068;12.116;2024-02-23T01:24:37;9.60;118.99
584;HTU21D;27024;54.068;12.116;2024-02-23T01:27:04;9.64;118.99
584;HTU21D;27024;54.068;12.116;2024-02-23T01:29:31;9.57;118.99
584;HTU21D;27024;54.068;12.116;2024-02-23T01:31:59;9.57;118.99
584;HTU21D;27024;54.068;12.116;2024-02-23T01:34:26;9.51;118.99
584;HTU21D;27024;54.068;12.116;2024-02-23T01:36:53;9.54;118.99
584;HTU21D;27024;54.068;12.116;2024-02-23T01:39:20;9.47;118.99
584;HTU21D;27024;54.068;12.116;2024-02-23T01:41:50;9.36;118.99
584;HTU21D;27024;54.068;12.116;2024-02-23T01:44:27;9.34;118.99
584;HTU21D;27024;54.068;12.116;2024-02-23T01:46:58;9.27;118.99
584;HTU21D;27024;54.068;12.116;2024-02-23T01:49:25;9.19;118.99
584;HTU21D;27024;54.068;12.116;2024-02-23T01:51:57;9.14;118.99
584;HTU21D;27024;54.068;12.116;2024-02-23T01:54:24;9.14;118.99
584;HTU21D;27024;54.068;12.116;2024-02-23T01:56:51;9.05;118.99
584;HTU21D;27024;54.068;12.116;2024-02-23T01:59:19;9.08;118.99
584;HTU21D;27024;54.068;12.116;2024-02-23T02:01:47;9.07;118.99
584;HTU21D;27024;54.068;12.116;2024-02-23T02:04:14;9.14;118.99
584;HTU21D;27024;54.068;12.116;2024-02-23T02:06:45;9.12;118.99
584;HTU21D;27024;54.068;12.116;2024-02-23T02:09:12;9.18;118.99
584;HTU21D;27024;54.068;12.116;2024-02-23T02:11:49;9.16;118.99
584;HTU21D;27024;54.068;12.116;2024-02-23T02:14:17;9.06;118.99
584;HTU21D;27024;54.068;12.116;2024-02-23T02:16:44;9.09;118.99
584;HTU21D;27024;54.068;12.116;2024-02-23T02:19:12;9.07;118.99
584;HTU21D;27024;54.068;12.116;2024-02-23T02:21:40;9.09;118.99
584;HTU21D;27024;54.068;12.116;2024-02-23T02:24:07;9.06;118.99
584;HTU21D;27024;54.068;12.116;2024-02-23T02:26:40;9.04;118.99
584;HTU21D;27024;54.068;12.116;2024-02-23T02:29:06;8.96;118.99
584;HTU21D;27024;54.068;12.116;2024-02-23T02:31:34;8.97;118.99
584;HTU21D;27024;54.068;12.116;2024-02-23T02:34:04;8.94;118.99
584;HTU21D;27024;54.068;12.116;2024-02-23T02:36:32;8.93;118.99
584;HTU21D;27024;54.068;12.116;2024-02-23T02:38:59;9.02;118.99
584;HTU21D;27024;54.068;12.116;2024-02-23T02:41:28;8.98;118.99
584;HTU21D;27024;54.068;12.116;2024-02-23T02:43:57;9.03;118.99
584;HTU21D;27024;54.068;12.116;2024-02-23T02:46:24;8.92;118.99
584;HTU21D;27024;54.068;12.116;2024-02-23T02:48:50;8.56;118.99
584;HTU21D;27024;54.068;12.116;2024-02-23T02:51:22;7.87;118.99
584;HTU21D;27024;54.068;12.116;2024-02-23T02:53:49;7.42;118.99
584;HTU21D;27024;54.068;12.116;2024-02-23T02:56:15;7.28;118.99
584;HTU21D;27024;54.068;12.116;2024-02-23T02:58:57;7.15;118.99
584;HTU21D;27024;54.068;12.116;2024-02-23T03:01:25;7.00;118.99
584;HTU21D;27024;54.068;12.116;2024-02-23T03:03:51;6.94;118.99
584;HTU21D;27024;54.068;12.116;2024-02-23T03:06:21;6.86;118.99
584;HTU21D;27024;54.068;12.116;2024-02-23T03:08:49;6.64;118.99
584;HTU21D;27024;54.068;12.116;2024-02-23T03:11:15;6.56;118.99
584;HTU21D;27024;54.068;12.116;2024-02-23T03:13:43;6.46;118.99
584;HTU21D;27024;54.068;12.116;2024-02-23T03:16:17;6.25;118.99
584;HTU21D;27024;54.068;12.116;2024-02-23T03:18:52;6.13;118.99
584;HTU21D;27024;54.068;12.116;2024-02-23T03:21:20;6.12;118.99
584;HTU21D;27024;54.068;12.116;2024-02-23T03:23:47;6.09;118.99
584;HTU21D;27024;54.068;12.116;2024-02-23T03:26:15;6.13;118.99
584;HTU21D;27024;54.068;12.116;2024-02-23T03:28:44;6.15;118.99
584;HTU21D;27024;54.068;12.116;2024-02-23T03:31:10;6.17;118.99
584;HTU21D;27024;54.068;12.116;2024-02-23T03:33:42;6.15;118.99
584;HTU21D;27024;54.068;12.116;2024-02-23T03:36:09;6.12;118.99
584;HTU21D;27024;54.068;12.116;2024-02-23T03:38:36;6.09;118.99
584;HTU21D;27024;54.068;12.116;2024-02-23T03:41:03;6.05;118.99
584;HTU21D;27024;54.068;12.116;2024-02-23T03:43:30;6.02;118.99
584;HTU21D;27024;54.068;12.116;2024-02-23T03:46:07;6.08;118.99
584;HTU21D;27024;54.068;12.116;2024-02-23T03:48:34;6.07;118.99
584;HTU21D;27024;54.068;12.116;2024-02-23T03:51:03;6.05;118.99
584;HTU21D;27024;54.068;12.116;2024-02-23T03:53:30;6.11;118.99
584;HTU21D;27024;54.068;12.116;2024-02-23T03:55:57;6.04;118.99
584;HTU21D;27024;54.068;12.116;2024-02-23T03:58:24;6.01;118.99
584;HTU21D;27024;54.068;12.116;2024-02-23T04:00:51;6.01;118.99
584;HTU21D;27024;54.068;12.116;2024-02-23T04:03:18;6.02;118.99
584;HTU21D;27024;54.068;12.116;2024-02-23T04:05:45;6.01;118.99
584;HTU21D;27024;54.068;12.116;2024-02-23T04:08:12;6.01;118.99
584;HTU21D;27024;54.068;12.116;2024-02-23T04:10:42;5.99;118.99
584;HTU21D;27024;54.068;12.116;2024-02-23T04:13:09;5.99;118.99
584;HTU21D;27024;54.068;12.116;2024-02-23T04:15:38;5.99;118.99
584;HTU21D;27024;54.068;12.116;2024-02-23T04:18:08;6.12;118.99
584;HTU21D;27024;54.068;12.116;2024-02-23T04:20:35;6.12;118.99
584;HTU21D;27024;54.068;12.116;2024-02-23T04:23:02;6.30;118.99
584;HTU21D;27024;54.068;12.116;2024-02-23T04:25:29;6.28;118.99
584;HTU21D;27024;54.068;12.116;2024-02-23T04:27:56;6.33;118.99
584;HTU21D;27024;54.068;12.116;2024-02-23T04:30:24;6.35;118.99
584;HTU21D;27024;54.068;12.116;2024-02-23T04:33:05;6.30;118.99
584;HTU21D;27024;54.068;12.116;2024-02-23T04:35:32;6.23;118.99
584;HTU21D;27024;54.068;12.116;2024-02-23T04:38:00;6.20;118.99
584;HTU21D;27024;54.068;12.116;2024-02-23T04:40:27;6.22;118.99
584;HTU21D;27024;54.068;12.116;2024-02-23T04:42:54;6.17;118.99
584;HTU21D;27024;54.068;12.116;2024-02-23T04:45:21;6.19;118.99
584;HTU21D;27024;54.068;12.116;2024-02-23T04:47:48;6.22;118.99
584;HTU21D;27024;54.068;12.116;2024-02-23T04:50:30;6.23;118.99
584;HTU21D;27024;54.068;12.116;2024-02-23T04:52:57;6.23;118.99
584;HTU21D;27024;54.068;12.116;2024-02-23T04:55:27;6.19;118.99
584;HTU21D;27024;54.068;12.116;2024-02-23T04:57:54;6.22;118.99
584;HTU21D;27024;54.068;12.116;2024-02-23T05:00:28;6.25;118.99
584;HTU21D;27024;54.068;12.116;2024-02-23T05:03:00;6.24;118.99
584;HTU21D;27024;54.068;12.116;2024-02-23T05:05:35;6.22;118.99
584;HTU21D;27024;54.068;12.116;2024-02-23T05:08:02;6.24;118.99
584;HTU21D;27024;54.068;12.116;2024-02-23T05:10:29;6.22;118.99
584;HTU21D;27024;54.068;12.116;2024-02-23T05:12:57;6.24;118.99
584;HTU21D;27024;54.068;12.116;2024-02-23T05:15:24;6.19;118.99
584;HTU21D;27024;54.068;12.116;2024-02-23T05:17:51;6.13;118.99
584;HTU21D;27024;54.068;12.116;2024-02-23T05:20:18;6.09;118.99
584;HTU21D;27024;54.068;12.116;2024-02-23T05:22:52;6.06;118.99
584;HTU21D;27024;54.068;12.116;2024-02-23T05:25:19;6.02;118.99
584;HTU21D;27024;54.068;12.116;2024-02-23T05:27:46;6.04;118.99
584;HTU21D;27024;54.068;12.116;2024-02-23T05:30:13;5.93;118.99
584;HTU21D;27024;54.068;12.116;2024-02-23T05:32:41;5.92;118.99
584;HTU21D;27024;54.068;12.116;2024-02-23T05:35:07;5.87;118.99
584;HTU21D;27024;54.068;12.116;2024-02-23T05:37:35;5.79;118.99
584;HTU21D;27024;54.068;12.116;2024-02-23T05:40:04;5.74;118.99
584;HTU21D;27024;54.068;12.116;2024-02-23T05:42:37;5.68;118.99
584;HTU21D;27024;54.068;12.116;2024-02-23T05:45:07;5.71;118.99
584;HTU21D;27024;54.068;12.116;2024-02-23T05:47:38;5.71;118.99
584;HTU21D;27024;54.068;12.116;2024-02-23T05:50:05;5.72;118.99
584;HTU21D;27024;54.068;12.116;2024-02-23T05:52:33;5.68;118.99
584;HTU21D;27024;54.068;12.116;2024-02-23T05:55:00;5.69;118.99
584;HTU21D;27024;54.068;12.116;2024-02-23T05:57:27;5.70;118.99
584;HTU21D;27024;54.068;12.116;2024-02-23T05:59:55;5.65;118.99
584;HTU21D;27024;54.068;12.116;2024-02-23T06:02:22;5.61;118.99
584;HTU21D;27024;54.068;12.116;2024-02-23T06:04:49;5.64;118.99
584;HTU21D;27024;54.068;12.116;2024-02-23T06:07:16;5.63;118.99
584;HTU21D;27024;54.068;12.116;2024-02-23T06:09:43;5.54;118.99
584;HTU21D;27024;54.068;12.116;2024-02-23T06:12:10;5.56;118.99
584;HTU21D;27024;54.068;12.116;2024-02-23T06:14:37;5.52;118.99
584;HTU21D;27024;54.068;12.116;2024-02-23T06:17:04;5.42;118.99
584;HTU21D;27024;54.068;12.116;2024-02-23T06:19:33;5.47;118.99
584;HTU21D;27024;54.068;12.116;2024-02-23T06:22:00;5.47;118.99
584;HTU21D;27024;54.068;12.116;2024-02-23T06:24:28;5.53;118.99
584;HTU21D;27024;54.068;12.116;2024-02-23T06:26:55;5.64;118.99
584;HTU21D;27024;54.068;12.116;2024-02-23T06:29:22;5.56;118.99
584;HTU21D;27024;54.068;12.116;2024-02-23T06:31:48;5.51;118.99
584;HTU21D;27024;54.068;12.116;2024-02-23T06:34:17;5.49;118.99
584;HTU21D;27024;54.068;12.116;2024-02-23T06:36:44;5.50;118.99
584;HTU21D;27024;54.068;12.116;2024-02-23T06:39:11;5.55;118.99
584;HTU21D;27024;54.068;12.116;2024-02-23T06:41:38;5.57;118.99
584;HTU21D;27024;54.068;12.116;2024-02-23T06:44:05;5.53;118.99
584;HTU21D;27024;54.068;12.116;2024-02-23T06:46:33;5.55;118.99
584;HTU21D;27024;54.068;12.116;2024-02-23T06:49:00;5.79;118.99
584;HTU21D;27024;54.068;12.116;2024-02-23T06:51:27;5.79;118.99
584;HTU21D;27024;54.068;12.116;2024-02-23T06:53:54;5.65;118.99
584;HTU21D;27024;54.068;12.116;2024-02-23T06:56:21;5.66;118.99
584;HTU21D;27024;54.068;12.116;2024-02-23T06:58:51;5.69;118.99
584;HTU21D;27024;54.068;12.116;2024-02-23T07:01:20;5.65;118.99
584;HTU21D;27024;54.068;12.116;2024-02-23T07:03:47;5.61;118.99
584;HTU21D;27024;54.068;12.116;2024-02-23T07:06:17;5.65;118.99
584;HTU21D;27024;54.068;12.116;2024-02-23T07:08:45;5.66;118.99
584;HTU21D;27024;54.068;12.116;2024-02-23T07:11:12;5.66;118.99
584;HTU21D;27024;54.068;12.116;2024-02-23T07:13:42;5.67;118.99
584;HTU21D;27024;54.068;12.116;2024-02-23T07:16:09;5.71;118.99
584;HTU21D;27024;54.068;12.116;2024-02-23T07:18:36;5.74;118.99
584;HTU21D;27024;54.068;12.116;2024-02-23T07:21:03;5.72;118.99
584;HTU21D;27024;54.068;12.116;2024-02-23T07:23:30;5.90;118.99
584;HTU21D;27024;54.068;12.116;2024-02-23T07:25:57;5.84;118.99
584;HTU21D;27024;54.068;12.116;2024-02-23T07:28:24;5.81;118.99
584;HTU21D;27024;54.068;12.116;2024-02-23T07:30:52;5.91;118.99
584;HTU21D;27024;54.068;12.116;2024-02-23T07:33:20;5.85;118.99
584;HTU21D;27024;54.068;12.116;2024-02-23T07:35:47;5.87;118.99
584;HTU21D;27024;54.068;12.116;2024-02-23T07:38:14;5.82;118.99
584;HTU21D;27024;54.068;12.116;2024-02-23T07:40:41;5.86;118.99
584;HTU21D;27024;54.068;12.116;2024-02-23T07:43:08;5.86;118.99
584;HTU21D;27024;54.068;12.116;2024-02-23T07:45:38;5.87;118.99
584;HTU21D;27024;54.068;12.116;2024-02-23T07:48:05;5.83;118.99
584;HTU21D;27024;54.068;12.116;2024-02-23T07:50:32;5.90;118.99
584;HTU21D;27024;54.068;12.116;2024-02-23T07:53:00;5.80;118.99
584;HTU21D;27024;54.068;12.116;2024-02-23T07:55:27;5.90;118.99
584;HTU21D;27024;54.068;12.116;2024-02-23T07:57:54;5.85;118.99
584;HTU21D;27024;54.068;12.116;2024-02-23T08:00:27;5.97;118.99
584;HTU21D;27024;54.068;12.116;2024-02-23T08:02:55;6.16;118.99
584;HTU21D;27024;54.068;12.116;2024-02-23T08:05:23;6.23;118.99
584;HTU21D;27024;54.068;12.116;2024-02-23T08:07:51;6.42;118.99
584;HTU21D;27024;54.068;12.116;2024-02-23T08:10:18;6.53;118.99
584;HTU21D;27024;54.068;12.116;2024-02-23T08:12:49;6.82;118.99
584;HTU21D;27024;54.068;12.116;2024-02-23T08:15:16;6.65;118.99
584;HTU21D;27024;54.068;12.116;2024-02-23T08:17:43;6.53;118.99
584;HTU21D;27024;54.068;12.116;2024-02-23T08:20:10;6.44;118.99
584;HTU21D;27024;54.068;12.116;2024-02-23T08:22:45;6.45;118.99
584;HTU21D;27024;54.068;12.116;2024-02-23T08:25:11;6.31;118.99
584;HTU21D;27024;54.068;12.116;2024-02-23T08:27:41;6.41;118.99
584;HTU21D;27024;54.068;12.116;2024-02-23T08:30:08;6.33;118.99
584;HTU21D;27024;54.068;12.116;2024-02-23T08:32:37;6.40;118.99
584;HTU21D;27024;54.068;12.116;2024-02-23T08:35:04;6.49;118.99
584;HTU21D;27024;54.068;12.116;2024-02-23T08:37:32;6.55;118.99
584;HTU21D;27024;54.068;12.116;2024-02-23T08:39:59;6.65;118.99
584;HTU21D;27024;54.068;12.116;2024-02-23T08:42:26;6.63;118.99
584;HTU21D;27024;54.068;12.116;2024-02-23T08:44:53;6.82;118.99
584;HTU21D;27024;54.068;12.116;2024-02-23T08:47:21;7.14;118.99
584;HTU21D;27024;54.068;12.116;2024-02-23T08:49:49;7.43;118.99
584;HTU21D;27024;54.068;12.116;2024-02-23T08:52:23;7.42;118.99
584;HTU21D;27024;54.068;12.116;2024-02-23T08:54:51;7.29;118.99
584;HTU21D;27024;54.068;12.116;2024-02-23T08:57:18;7.20;118.99
584;HTU21D;27024;54.068;12.116;2024-02-23T08:59:46;7.05;118.99
584;HTU21D;27024;54.068;12.116;2024-02-23T09:02:14;7.11;118.99
584;HTU21D;27024;54.068;12.116;2024-02-23T09:04:41;7.20;118.99
584;HTU21D;27024;54.068;12.116;2024-02-23T09:07:08;7.23;118.99
584;HTU21D;27024;54.068;12.116;2024-02-23T09:09:36;7.55;118.99
584;HTU21D;27024;54.068;12.116;2024-02-23T09:12:10;7.39;118.99
584;HTU21D;27024;54.068;12.116;2024-02-23T09:14:38;7.38;118.99
584;HTU21D;27024;54.068;12.116;2024-02-23T09:17:05;7.30;118.99
584;HTU21D;27024;54.068;12.116;2024-02-23T09:19:38;7.45;118.99
584;HTU21D;27024;54.068;12.116;2024-02-23T09:22:05;7.38;118.99
584;HTU21D;27024;54.068;12.116;2024-02-23T09:24:39;7.52;118.99
584;HTU21D;27024;54.068;12.116;2024-02-23T09:27:06;7.85;118.99
584;HTU21D;27024;54.068;12.116;2024-02-23T09:29:34;7.78;118.99
584;HTU21D;27024;54.068;12.116;2024-02-23T09:32:01;8.04;118.99
584;HTU21D;27024;54.068;12.116;2024-02-23T09:34:28;7.97;118.99
584;HTU21D;27024;54.068;12.116;2024-02-23T09:36:56;8.20;118.99
584;HTU21D;27024;54.068;12.116;2024-02-23T09:39:23;8.23;118.99
584;HTU21D;27024;54.068;12.116;2024-02-23T09:41:54;8.43;118.99
584;HTU21D;27024;54.068;12.116;2024-02-23T09:44:21;8.81;118.99
584;HTU21D;27024;54.068;12.116;2024-02-23T09:46:49;9.16;118.99
584;HTU21D;27024;54.068;12.116;2024-02-23T09:49:16;8.83;118.99
584;HTU21D;27024;54.068;12.116;2024-02-23T09:51:44;8.92;118.99
584;HTU21D;27024;54.068;12.116;2024-02-23T09:54:11;8.83;118.99
584;HTU21D;27024;54.068;12.116;2024-02-23T09:56:38;8.61;118.99
584;HTU21D;27024;54.068;12.116;2024-02-23T09:59:14;8.74;118.99
584;HTU21D;27024;54.068;12.116;2024-02-23T10:01:43;8.55;118.99
584;HTU21D;27024;54.068;12.116;2024-02-23T10:04:11;8.70;118.99
584;HTU21D;27024;54.068;12.116;2024-02-23T10:06:41;8.86;118.99
584;HTU21D;27024;54.068;12.116;2024-02-23T10:09:08;8.94;118.99
584;HTU21D;27024;54.068;12.116;2024-02-23T10:11:35;9.17;118.99
584;HTU21D;27024;54.068;12.116;2024-02-23T10:14:02;8.98;118.99
584;HTU21D;27024;54.068;12.116;2024-02-23T10:16:29;9.63;118.99
584;HTU21D;27024;54.068;12.116;2024-02-23T10:18:57;9.65;118.99
584;HTU21D;27024;54.068;12.116;2024-02-23T10:21:24;9.23;118.99
584;HTU21D;27024;54.068;12.116;2024-02-23T10:23:52;9.31;118.99
584;HTU21D;27024;54.068;12.116;2024-02-23T10:26:19;9.47;118.99
584;HTU21D;27024;54.068;12.116;2024-02-23T10:28:49;9.45;118.99
584;HTU21D;27024;54.068;12.116;2024-02-23T10:31:18;9.54;118.99
584;HTU21D;27024;54.068;12.116;2024-02-23T10:33:45;9.42;118.99
584;HTU21D;27024;54.068;12.116;2024-02-23T10:36:15;9.39;118.99
584;HTU21D;27024;54.068;12.116;2024-02-23T10:38:45;9.17;118.99
584;HTU21D;27024;54.068;12.116;2024-02-23T10:41:13;9.04;118.99
584;HTU21D;27024;54.068;12.116;2024-02-23T10:43:47;9.33;118.99
584;HTU21D;27024;54.068;12.116;2024-02-23T10:46:14;9.48;118.99
584;HTU21D;27024;54.068;12.116;2024-02-23T10:48:43;9.63;118.99
584;HTU21D;27024;54.068;12.116;2024-02-23T10:51:13;10.03;118.99
584;HTU21D;27024;54.068;12.116;2024-02-23T10:53:46;9.95;118.99
584;HTU21D;27024;54.068;12.116;2024-02-23T10:56:15;9.62;118.99
584;HTU21D;27024;54.068;12.116;2024-02-23T10:58:42;10.00;118.99
584;HTU21D;27024;54.068;12.116;2024-02-23T11:01:10;10.39;118.99
584;HTU21D;27024;54.068;12.116;2024-02-23T11:03:38;10.72;118.99
584;HTU21D;27024;54.068;12.116;2024-02-23T11:06:08;10.88;118.99
584;HTU21D;27024;54.068;12.116;2024-02-23T11:08:36;11.15;118.99
584;HTU21D;27024;54.068;12.116;2024-02-23T11:11:10;11.09;118.99
584;HTU21D;27024;54.068;12.116;2024-02-23T11:13:39;11.03;118.99
584;HTU21D;27024;54.068;12.116;2024-02-23T11:16:08;10.92;118.99
584;HTU21D;27024;54.068;12.116;2024-02-23T11:18:41;11.12;118.99
584;HTU21D;27024;54.068;12.116;2024-02-23T11:21:09;11.39;118.99
584;HTU21D;27024;54.068;12.116;2024-02-23T11:23:44;11.48;118.99
584;HTU21D;27024;54.068;12.116;2024-02-23T11:26:12;11.27;118.99
584;HTU21D;27024;54.068;12.116;2024-02-23T11:28:50;11.72;118.99
584;HTU21D;27024;54.068;12.116;2024-02-23T11:31:21;11.93;118.99
584;HTU21D;27024;54.068;12.116;2024-02-23T11:33:49;12.20;118.99
584;HTU21D;27024;54.068;12.116;2024-02-23T11:36:32;11.98;118.99
584;HTU21D;27024;54.068;12.116;2024-02-23T11:39:00;12.53;112.76
584;HTU21D;27024;54.068;12.116;2024-02-23T11:41:28;13.08;99.80
584;HTU21D;27024;54.068;12.116;2024-02-23T11:43:56;12.88;101.38
584;HTU21D;27024;54.068;12.116;2024-02-23T11:46:25;12.79;88.85
584;HTU21D;27024;54.068;12.116;2024-02-23T11:48:52;12.69;81.14
584;HTU21D;27024;54.068;12.116;2024-02-23T11:51:23;12.41;66.60
584;HTU21D;27024;54.068;12.116;2024-02-23T11:54:08;13.14;66.26
584;HTU21D;27024;54.068;12.116;2024-02-23T11:56:35;13.04;74.73
584;HTU21D;27024;54.068;12.116;2024-02-23T11:59:03;12.73;49.42
584;HTU21D;27024;54.068;12.116;2024-02-23T12:01:30;12.59;53.65
584;HTU21D;27024;54.068;12.116;2024-02-23T12:03:58;12.94;61.87
584;HTU21D;27024;54.068;12.116;2024-02-23T12:06:25;13.49;75.05
584;HTU21D;27024;54.068;12.116;2024-02-23T12:08:56;13.56;90.79
584;HTU21D;27024;54.068;12.116;2024-02-23T12:11:23;12.74;64.75
584;HTU21D;27024;54.068;12.116;2024-02-23T12:13:51;12.80;60.34
584;HTU21D;27024;54.068;12.116;2024-02-23T12:16:20;12.82;68.24
584;HTU21D;27024;54.068;12.116;2024-02-23T12:18:55;12.82;65.21
584;HTU21D;27024;54.068;12.116;2024-02-23T12:21:23;12.48;73.29
584;HTU21D;27024;54.068;12.116;2024-02-23T12:23:51;12.81;73.83
584;HTU21D;27024;54.068;12.116;2024-02-23T12:26:18;12.90;68.82
584;HTU21D;27024;54.068;12.116;2024-02-23T12:28:45;13.15;68.55
584;HTU21D;27024;54.068;12.116;2024-02-23T12:31:13;12.72;62.82
584;HTU21D;27024;54.068;12.116;2024-02-23T12:33:40;12.41;70.03
584;HTU21D;27024;54.068;12.116;2024-02-23T12:36:08;12.62;72.04
584;HTU21D;27024;54.068;12.116;2024-02-23T12:38:37;12.71;66.40
584;HTU21D;27024;54.068;12.116;2024-02-23T12:41:04;12.84;70.47
584;HTU21D;27024;54.068;12.116;2024-02-23T12:43:32;13.04;64.85
584;HTU21D;27024;54.068;12.116;2024-02-23T12:45:59;12.82;68.68
584;HTU21D;27024;54.068;12.116;2024-02-23T12:48:28;12.96;67.81
584;HTU21D;27024;54.068;12.116;2024-02-23T12:50:58;12.49;68.05
584;HTU21D;27024;54.068;12.116;2024-02-23T12:56:02;12.21;68.98
584;HTU21D;27024;54.068;12.116;2024-02-23T12:58:32;12.40;63.35
584;HTU21D;27024;54.068;12.116;2024-02-23T13:01:00;12.35;58.09
584;HTU21D;27024;54.068;12.116;2024-02-23T13:03:27;12.07;68.17
584;HTU21D;27024;54.068;12.116;2024-02-23T13:05:55;12.19;65.78
584;HTU21D;27024;54.068;12.116;2024-02-23T13:08:22;12.06;54.59
584;HTU21D;27024;54.068;12.116;2024-02-23T13:10:51;11.98;55.22
584;HTU21D;27024;54.068;12.116;2024-02-23T13:13:19;12.20;66.00
584;HTU21D;27024;54.068;12.116;2024-02-23T13:15:47;12.15;48.64
584;HTU21D;27024;54.068;12.116;2024-02-23T13:18:14;12.27;55.71
584;HTU21D;27024;54.068;12.116;2024-02-23T13:20:41;12.49;40.95
584;HTU21D;27024;54.068;12.116;2024-02-23T13:23:10;12.63;43.02
584;HTU21D;27024;54.068;12.116;2024-02-23T13:25:39;12.78;31.24
584;HTU21D;27024;54.068;12.116;2024-02-23T13:28:07;12.88;38.60
584;HTU21D;27024;54.068;12.116;2024-02-23T13:30:36;12.92;37.11
584;HTU21D;27024;54.068;12.116;2024-02-23T13:33:03;13.11;43.71
584;HTU21D;27024;54.068;12.116;2024-02-23T13:35:32;12.77;28.60
584;HTU21D;27024;54.068;12.116;2024-02-23T13:37:59;13.05;48.92
584;HTU21D;27024;54.068;12.116;2024-02-23T13:40:26;13.15;32.35
584;HTU21D;27024;54.068;12.116;2024-02-23T13:42:53;13.44;17.25
584;HTU21D;27024;54.068;12.116;2024-02-23T13:45:20;13.31;18.57
584;HTU21D;27024;54.068;12.116;2024-02-23T13:47:57;13.60;27.53
584;HTU21D;27024;54.068;12.116;2024-02-23T13:50:26;13.43;26.78
584;HTU21D;27024;54.068;12.116;2024-02-23T13:52:53;13.70;12.84
584;HTU21D;27024;54.068;12.116;2024-02-23T13:55:21;12.97;26.12
584;HTU21D;27024;54.068;12.116;2024-02-23T13:57:48;13.24;18.33
584;HTU21D;27024;54.068;12.116;2024-02-23T14:00:17;13.17;46.06
584;HTU21D;27024;54.068;12.116;2024-02-23T14:02:46;12.96;49.62
584;HTU21D;27024;54.068;12.116;2024-02-23T14:05:14;12.81;31.84
584;HTU21D;27024;54.068;12.116;2024-02-23T14:07:42;13.16;30.79
584;HTU21D;27024;54.068;12.116;2024-02-23T14:10:10;12.96;26.85
584;HTU21D;27024;54.068;12.116;2024-02-23T14:12:37;12.75;29.56
584;HTU21D;27024;54.068;12.116;2024-02-23T14:15:04;12.93;18.99
584;HTU21D;27024;54.068;12.116;2024-02-23T14:17:32;12.85;32.51
584;HTU21D;27024;54.068;12.116;2024-02-23T14:20:02;12.33;57.61
584;HTU21D;27024;54.068;12.116;2024-02-23T14:22:30;11.72;59.61
584;HTU21D;27024;54.068;12.116;2024-02-23T14:24:58;11.54;67.91
584;HTU21D;27024;54.068;12.116;2024-02-23T14:27:26;11.28;75.70
584;HTU21D;27024;54.068;12.116;2024-02-23T14:29:58;11.29;91.40
584;HTU21D;27024;54.068;12.116;2024-02-23T14:32:25;10.85;102.35
584;HTU21D;27024;54.068;12.116;2024-02-23T14:34:52;10.72;107.29
584;HTU21D;27024;54.068;12.116;2024-02-23T14:37:20;10.83;102.54
584;HTU21D;27024;54.068;12.116;2024-02-23T14:39:47;10.75;101.19
584;HTU21D;27024;54.068;12.116;2024-02-23T14:42:16;10.51;111.97
584;HTU21D;27024;54.068;12.116;2024-02-23T14:44:42;10.40;118.99
584;HTU21D;27024;54.068;12.116;2024-02-23T14:47:10;10.25;117.73
584;HTU21D;27024;54.068;12.116;2024-02-23T14:49:37;10.29;118.99
584;HTU21D;27024;54.068;12.116;2024-02-23T14:52:04;10.13;118.99
584;HTU21D;27024;54.068;12.116;2024-02-23T14:54:31;9.91;118.99
584;HTU21D;27024;54.068;12.116;2024-02-23T14:57:00;9.97;118.99
584;HTU21D;27024;54.068;12.116;2024-02-23T14:59:27;9.99;118.99
584;HTU21D;27024;54.068;12.116;2024-02-23T15:01:54;9.89;118.99
584;HTU21D;27024;54.068;12.116;2024-02-23T15:04:21;9.95;118.99
584;HTU21D;27024;54.068;12.116;2024-02-23T15:06:48;10.10;118.99
584;HTU21D;27024;54.068;12.116;2024-02-23T15:09:15;9.97;118.99
584;HTU21D;27024;54.068;12.116;2024-02-23T15:11:42;10.00;118.99
584;HTU21D;27024;54.068;12.116;2024-02-23T15:14:09;9.89;118.99
584;HTU21D;27024;54.068;12.116;2024-02-23T15:16:36;9.77;118.99
584;HTU21D;27024;54.068;12.116;2024-02-23T15:19:03;9.69;118.99
584;HTU21D;27024;54.068;12.116;2024-02-23T15:21:33;9.65;118.99
584;HTU21D;27024;54.068;12.116;2024-02-23T15:24:06;9.62;118.99
584;HTU21D;27024;54.068;12.116;2024-02-23T15:26:33;9.55;118.99
584;HTU21D;27024;54.068;12.116;2024-02-23T15:29:00;9.62;118.99
584;HTU21D;27024;54.068;12.116;2024-02-23T15:31:30;9.64;118.99
584;HTU21D;27024;54.068;12.116;2024-02-23T15:33:57;9.49;118.99
584;HTU21D;27024;54.068;12.116;2024-02-23T15:36:25;9.59;118.99
584;HTU21D;27024;54.068;12.116;2024-02-23T15:38:52;9.34;118.99